Time;durP1;ratioP1;P1;durP2;ratioP2;P2;SDS_P1;SDS_P2;PMS_P1;PMS_P2;Temp;Humidity;BMP_temperature;BMP_pressure;BME280_temperature;BME280_humidity;BME280_pressure;Samples;Min_cycle;Max_cycle;Signal;HPM_P1;HPM_P2
2021/07/10 00:00:28;;;;;;;12.40;11.30;;;17.80;99.90;;;;;;5061550;28;20469;-81
2021/07/10 00:02:54;;;;;;;12.30;11.13;;;17.80;99.90;;;;;;5100694;28;20419;-81
2021/07/10 00:05:20;;;;;;;12.40;11.23;;;17.80;99.90;;;;;;5103462;28;20316;-81
2021/07/10 00:07:46;;;;;;;12.40;11.30;;;17.70;99.90;;;;;;5086227;28;20192;-80
2021/07/10 00:10:15;;;;;;;13.33;12.23;;;17.70;99.90;;;;;;5101064;28;20237;-80
2021/07/10 00:12:41;;;;;;;13.30;11.90;;;17.70;99.90;;;;;;5097953;28;20424;-82
2021/07/10 00:15:10;;;;;;;14.23;12.80;;;17.60;99.90;;;;;;5103740;28;20896;-81
2021/07/10 00:17:36;;;;;;;13.53;12.23;;;17.60;99.90;;;;;;5102554;28;20708;-81
2021/07/10 00:20:04;;;;;;;12.63;11.43;;;17.50;99.90;;;;;;5087746;28;20446;-82
2021/07/10 00:22:30;;;;;;;13.30;12.00;;;17.40;99.90;;;;;;5067974;28;20280;-82
2021/07/10 00:24:56;;;;;;;13.50;12.23;;;17.30;99.90;;;;;;5094429;28;20486;-80
2021/07/10 00:27:22;;;;;;;13.47;12.17;;;17.20;99.90;;;;;;5074072;28;20189;-81
2021/07/10 00:29:48;;;;;;;12.30;11.20;;;17.20;99.90;;;;;;5082595;28;20446;-82
2021/07/10 00:32:14;;;;;;;12.93;11.73;;;17.20;99.90;;;;;;5081440;28;20423;-82
2021/07/10 00:34:40;;;;;;;15.10;12.57;;;17.20;99.90;;;;;;5103637;28;20224;-81
2021/07/10 00:37:06;;;;;;;14.40;12.87;;;17.10;99.90;;;;;;5102999;28;20453;-80
2021/07/10 00:39:31;;;;;;;14.23;12.87;;;17.10;99.90;;;;;;5098048;28;20433;-81
2021/07/10 00:41:57;;;;;;;14.17;12.77;;;17.00;99.90;;;;;;5080739;28;20192;-81
2021/07/10 00:44:23;;;;;;;13.77;12.47;;;16.90;99.90;;;;;;5079195;28;20207;-81
2021/07/10 00:46:48;;;;;;;15.17;13.67;;;16.80;99.90;;;;;;5099717;28;20202;-82
2021/07/10 00:49:14;;;;;;;13.57;12.27;;;16.70;99.90;;;;;;5076866;28;20634;-82
2021/07/10 00:51:40;;;;;;;14.17;12.67;;;16.70;99.90;;;;;;5061574;28;20185;-82
2021/07/10 00:54:05;;;;;;;14.27;12.87;;;16.70;99.90;;;;;;5062676;28;20300;-80
2021/07/10 00:56:31;;;;;;;14.47;12.97;;;16.70;99.90;;;;;;5075705;28;20193;-80
2021/07/10 00:58:58;;;;;;;14.47;13.17;;;16.70;99.90;;;;;;5079914;28;20199;-82
2021/07/10 01:01:25;;;;;;;14.63;12.50;;;16.70;99.90;;;;;;5091257;28;20188;-81
2021/07/10 01:03:51;;;;;;;15.27;13.87;;;16.60;99.90;;;;;;5057270;28;20470;-82
2021/07/10 01:06:17;;;;;;;15.80;14.23;;;16.60;99.90;;;;;;5098676;28;20422;-82
2021/07/10 01:08:45;;;;;;;16.00;13.07;;;16.60;99.90;;;;;;5080173;28;20418;-81
2021/07/10 01:11:11;;;;;;;15.07;13.30;;;16.50;99.90;;;;;;5063040;28;20184;-81
2021/07/10 01:13:37;;;;;;;14.90;13.40;;;16.40;99.90;;;;;;5096733;28;20426;-81
2021/07/10 01:16:04;;;;;;;14.27;12.87;;;16.40;99.90;;;;;;5063459;28;20498;-81
2021/07/10 01:18:30;;;;;;;14.57;12.90;;;16.40;99.90;;;;;;5093451;28;20800;-81
2021/07/10 01:20:56;;;;;;;15.40;12.60;;;16.40;99.90;;;;;;5078420;28;20520;-80
2021/07/10 01:23:23;;;;;;;13.90;12.60;;;16.40;99.90;;;;;;5060481;28;20451;-80
2021/07/10 01:25:50;;;;;;;15.10;13.63;;;16.30;99.90;;;;;;5079299;28;20271;-81
2021/07/10 01:28:16;;;;;;;14.73;13.20;;;16.30;99.90;;;;;;5097703;28;20799;-79
2021/07/10 01:30:43;;;;;;;15.53;14.03;;;16.20;99.90;;;;;;5084326;28;20422;-81
2021/07/10 01:33:09;;;;;;;15.73;14.13;;;16.20;99.90;;;;;;5080627;28;20418;-81
2021/07/10 01:35:35;;;;;;;14.23;12.93;;;16.20;99.90;;;;;;5063503;28;20474;-80
2021/07/10 01:38:07;;;;;;;15.57;13.97;;;16.10;99.90;;;;;;5073254;28;20469;-80
2021/07/10 01:40:34;;;;;;;15.13;13.67;;;16.10;99.90;;;;;;5067310;28;20441;-82
2021/07/10 01:43:03;;;;;;;15.07;13.57;;;16.10;99.90;;;;;;5080093;28;20497;-82
2021/07/10 01:45:30;;;;;;;14.13;12.70;;;16.20;99.90;;;;;;5096202;28;20500;-81
2021/07/10 01:47:56;;;;;;;16.00;14.40;;;16.10;99.90;;;;;;5096347;28;20414;-82
2021/07/10 01:50:22;;;;;;;19.00;14.43;;;16.10;99.90;;;;;;5079197;28;20415;-81
2021/07/10 01:52:48;;;;;;;15.83;14.33;;;16.10;99.90;;;;;;5083870;28;20424;-81
2021/07/10 01:55:15;;;;;;;15.63;14.13;;;16.00;99.90;;;;;;5095167;28;20481;-81
2021/07/10 01:57:42;;;;;;;15.67;14.17;;;16.00;99.90;;;;;;5096599;28;20803;-81
2021/07/10 02:00:14;;;;;;;15.90;14.37;;;16.00;99.90;;;;;;5052690;28;20458;-81
2021/07/10 02:02:42;;;;;;;14.80;13.40;;;16.00;99.90;;;;;;5078437;28;20412;-80
2021/07/10 02:05:08;;;;;;;16.73;15.03;;;16.00;99.90;;;;;;5096066;28;20465;-80
2021/07/10 02:07:34;;;;;;;15.90;14.30;;;16.10;99.90;;;;;;5059474;28;20415;-81
2021/07/10 02:10:00;;;;;;;15.50;13.77;;;16.10;99.90;;;;;;5085390;28;20429;-80
2021/07/10 02:12:26;;;;;;;15.30;13.80;;;16.10;99.90;;;;;;5045879;28;20651;-80
2021/07/10 02:14:51;;;;;;;15.73;14.03;;;16.10;99.90;;;;;;5079889;28;20200;-80
2021/07/10 02:17:17;;;;;;;16.30;14.70;;;16.10;99.90;;;;;;5096163;28;20836;-81
2021/07/10 02:19:43;;;;;;;16.77;15.17;;;16.00;99.90;;;;;;5043249;28;20184;-80
2021/07/10 02:22:09;;;;;;;15.50;13.90;;;16.00;99.90;;;;;;5093321;28;20208;-82
2021/07/10 02:24:35;;;;;;;16.33;14.63;;;16.00;99.90;;;;;;5099175;28;20458;-81
2021/07/10 02:27:02;;;;;;;16.73;15.03;;;16.00;99.90;;;;;;5095107;28;20415;-81
2021/07/10 02:29:28;;;;;;;15.33;13.80;;;16.00;99.90;;;;;;5049260;28;20419;-82
2021/07/10 02:31:53;;;;;;;17.53;15.57;;;16.00;99.90;;;;;;5082698;28;21133;-81
2021/07/10 02:34:20;;;;;;;16.20;13.67;;;15.90;99.90;;;;;;5082266;28;20529;-81
2021/07/10 02:36:45;;;;;;;15.50;14.00;;;15.80;99.90;;;;;;5100347;28;20216;-82
2021/07/10 02:39:12;;;;;;;16.00;14.30;;;15.70;99.90;;;;;;5063102;28;20411;-81
2021/07/10 02:41:37;;;;;;;16.60;14.77;;;15.80;99.90;;;;;;5092215;28;20594;-81
2021/07/10 02:44:05;;;;;;;17.60;15.80;;;15.70;99.90;;;;;;5099350;28;20483;-81
2021/07/10 02:46:31;;;;;;;19.43;17.40;;;15.70;99.90;;;;;;5100294;28;20185;-81
2021/07/10 02:48:58;;;;;;;16.80;15.10;;;15.60;99.90;;;;;;5100155;28;20425;-82
2021/07/10 02:51:25;;;;;;;18.07;16.17;;;15.60;99.90;;;;;;5050075;28;20798;-80
2021/07/10 02:53:54;;;;;;;17.37;15.60;;;15.60;99.90;;;;;;5099785;28;20442;-82
2021/07/10 02:56:20;;;;;;;21.57;16.70;;;15.60;99.90;;;;;;5100111;28;20880;-80
2021/07/10 02:58:46;;;;;;;19.03;16.60;;;15.60;99.90;;;;;;5083493;28;20418;-80
2021/07/10 03:01:12;;;;;;;17.13;15.33;;;15.60;99.90;;;;;;5081778;28;20912;-81
2021/07/10 03:03:38;;;;;;;17.67;15.77;;;15.60;99.90;;;;;;5083043;28;20466;-80
2021/07/10 03:06:03;;;;;;;16.97;15.37;;;15.50;99.90;;;;;;5082982;28;20183;-81
2021/07/10 03:08:30;;;;;;;17.83;15.80;;;15.40;99.90;;;;;;5078848;28;20226;-82
2021/07/10 03:10:55;;;;;;;18.80;16.67;;;15.30;99.90;;;;;;5079878;28;20810;-80
2021/07/10 03:13:21;;;;;;;18.90;16.90;;;15.30;99.90;;;;;;5076849;28;20424;-82
2021/07/10 03:15:47;;;;;;;16.57;14.77;;;15.40;99.90;;;;;;5046217;28;20225;-82
2021/07/10 03:18:12;;;;;;;17.80;15.87;;;15.40;99.90;;;;;;5089765;28;20537;-81
2021/07/10 03:20:38;;;;;;;19.00;16.53;;;15.40;99.90;;;;;;5048111;28;20177;-80
2021/07/10 03:23:04;;;;;;;20.37;17.50;;;15.40;99.90;;;;;;5099074;28;20165;-81
2021/07/10 03:25:30;;;;;;;20.50;18.27;;;15.40;99.90;;;;;;5064994;28;20224;-81
2021/07/10 03:27:56;;;;;;;21.27;17.03;;;15.40;99.90;;;;;;5077378;28;20440;-80
2021/07/10 03:30:22;;;;;;;18.50;16.60;;;15.40;99.90;;;;;;5091715;28;20267;-80
2021/07/10 03:32:48;;;;;;;19.37;17.33;;;15.40;99.90;;;;;;5082110;28;20441;-80
2021/07/10 03:35:15;;;;;;;19.30;17.20;;;15.40;99.90;;;;;;5069338;28;20499;-81
2021/07/10 03:37:41;;;;;;;19.67;17.23;;;15.40;99.90;;;;;;5099482;28;20438;-80
2021/07/10 03:40:10;;;;;;;19.03;17.00;;;15.40;99.90;;;;;;5097786;28;21147;-81
2021/07/10 03:42:36;;;;;;;19.90;17.80;;;15.40;99.90;;;;;;5091861;28;20188;-81
2021/07/10 03:45:04;;;;;;;21.27;18.20;;;15.40;99.90;;;;;;5098429;28;20470;-82
2021/07/10 03:47:31;;;;;;;22.23;18.30;;;15.30;99.90;;;;;;5078335;28;20173;-82
2021/07/10 03:49:57;;;;;;;18.13;16.30;;;15.30;99.90;;;;;;5050775;28;20451;-80
2021/07/10 03:52:22;;;;;;;18.97;17.10;;;15.30;99.90;;;;;;5081444;28;20448;-81
2021/07/10 03:54:48;;;;;;;19.60;16.90;;;15.40;99.90;;;;;;5048074;28;20262;-81
2021/07/10 03:57:14;;;;;;;18.37;16.43;;;15.40;99.90;;;;;;5095831;28;20229;-81
2021/07/10 03:59:39;;;;;;;21.03;18.60;;;15.30;99.90;;;;;;5097927;28;20184;-81
2021/07/10 04:02:05;;;;;;;18.67;16.77;;;15.40;99.90;;;;;;5097858;28;20180;-81
2021/07/10 04:04:31;;;;;;;18.50;16.60;;;15.30;99.90;;;;;;5081533;28;20284;-81
2021/07/10 04:06:56;;;;;;;19.03;17.07;;;15.30;99.90;;;;;;5099830;28;20208;-80
2021/07/10 04:09:22;;;;;;;18.37;15.30;;;15.20;99.90;;;;;;5032252;28;20223;-80
2021/07/10 04:11:48;;;;;;;18.90;16.53;;;15.20;99.90;;;;;;5081511;28;20188;-80
2021/07/10 04:14:14;;;;;;;19.90;16.57;;;15.10;99.90;;;;;;5081153;28;20454;-81
2021/07/10 04:16:40;;;;;;;18.43;16.47;;;15.10;99.90;;;;;;5097695;28;20430;-81
2021/07/10 04:19:05;;;;;;;22.60;18.43;;;15.10;99.90;;;;;;5067637;28;20377;-80
2021/07/10 04:21:31;;;;;;;19.23;16.77;;;15.10;99.90;;;;;;5058279;28;20727;-81
2021/07/10 04:23:57;;;;;;;22.30;17.80;;;15.10;99.90;;;;;;5077656;28;20641;-80
2021/07/10 04:26:22;;;;;;;19.20;17.07;;;15.10;99.90;;;;;;5085104;28;20188;-80
2021/07/10 04:28:48;;;;;;;19.00;17.00;;;15.20;99.90;;;;;;5099158;28;20213;-81
2021/07/10 04:31:14;;;;;;;19.43;16.60;;;15.20;99.90;;;;;;5080806;28;20208;-81
2021/07/10 04:33:40;;;;;;;21.53;17.47;;;15.30;99.90;;;;;;5066893;28;20192;-81
2021/07/10 04:36:05;;;;;;;19.83;17.70;;;15.30;99.90;;;;;;5077011;28;20191;-80
2021/07/10 04:38:31;;;;;;;20.43;17.77;;;15.40;99.90;;;;;;5098335;28;20165;-80
2021/07/10 04:40:57;;;;;;;20.30;18.10;;;15.40;99.90;;;;;;5097106;28;20273;-80
2021/07/10 04:43:23;;;;;;;22.67;17.80;;;15.40;99.90;;;;;;5097139;28;20268;-80
2021/07/10 04:45:49;;;;;;;19.57;16.53;;;15.40;99.90;;;;;;5063712;28;20470;-79
2021/07/10 04:48:14;;;;;;;19.43;17.33;;;15.50;99.90;;;;;;5098030;28;20188;-79
2021/07/10 04:50:40;;;;;;;20.47;18.37;;;15.60;99.90;;;;;;5080943;28;20185;-80
2021/07/10 04:53:06;;;;;;;20.97;18.70;;;15.60;99.90;;;;;;5097691;28;20275;-79
2021/07/10 04:55:31;;;;;;;20.87;18.67;;;15.70;99.90;;;;;;5087155;28;20228;-80
2021/07/10 04:57:57;;;;;;;21.77;18.77;;;15.80;99.90;;;;;;5079727;28;20864;-81
2021/07/10 05:00:24;;;;;;;20.90;18.50;;;15.90;99.90;;;;;;5080489;28;20242;-81
2021/07/10 05:02:50;;;;;;;21.60;18.33;;;16.00;99.90;;;;;;5079627;28;20518;-81
2021/07/10 05:05:16;;;;;;;21.87;19.57;;;16.10;99.90;;;;;;5080611;28;20496;-80
2021/07/10 05:07:43;;;;;;;18.63;16.63;;;16.20;99.90;;;;;;5098352;28;20437;-80
2021/07/10 05:10:09;;;;;;;23.03;20.57;;;16.40;99.90;;;;;;5081310;28;20415;-81
2021/07/10 05:12:35;;;;;;;23.57;19.53;;;16.50;99.90;;;;;;5079382;28;20907;-81
2021/07/10 05:15:00;;;;;;;21.27;18.97;;;16.60;99.90;;;;;;5080569;28;20439;-80
2021/07/10 05:17:26;;;;;;;22.90;19.83;;;16.70;99.90;;;;;;5091921;28;20600;-81
2021/07/10 05:19:52;;;;;;;22.93;19.50;;;16.80;99.90;;;;;;5064975;28;20242;-82
2021/07/10 05:22:18;;;;;;;24.70;20.30;;;16.80;99.90;;;;;;5062016;28;20224;-80
2021/07/10 05:24:44;;;;;;;22.33;19.37;;;16.90;99.90;;;;;;5087622;28;20299;-80
2021/07/10 05:27:10;;;;;;;23.03;19.07;;;17.00;99.90;;;;;;5088894;28;20951;-80
2021/07/10 05:29:35;;;;;;;21.17;18.97;;;17.00;99.90;;;;;;5077365;28;20259;-80
2021/07/10 05:32:02;;;;;;;22.40;20.00;;;17.10;99.90;;;;;;5095325;28;20478;-81
2021/07/10 05:34:28;;;;;;;20.50;17.80;;;17.20;99.90;;;;;;5095908;28;20212;-80
2021/07/10 05:36:54;;;;;;;23.63;21.10;;;17.30;99.90;;;;;;5079957;28;20454;-80
2021/07/10 05:39:20;;;;;;;20.77;18.57;;;17.30;99.90;;;;;;5079645;28;20189;-80
2021/07/10 05:41:45;;;;;;;20.87;18.67;;;17.40;99.90;;;;;;5085505;28;20450;-81
2021/07/10 05:44:11;;;;;;;19.40;17.30;;;17.50;99.90;;;;;;5095440;28;20283;-81
2021/07/10 05:46:37;;;;;;;19.70;15.93;;;17.60;99.90;;;;;;5049661;28;20192;-81
2021/07/10 05:49:02;;;;;;;20.00;17.87;;;17.80;99.90;;;;;;5042395;28;20197;-81
2021/07/10 05:51:28;;;;;;;18.47;16.50;;;17.90;99.90;;;;;;5077323;28;20176;-80
2021/07/10 05:53:54;;;;;;;21.60;17.13;;;18.00;99.90;;;;;;5059544;28;20212;-80
2021/07/10 05:56:20;;;;;;;18.83;16.83;;;18.20;99.90;;;;;;5093040;28;20204;-80
2021/07/10 05:58:45;;;;;;;20.20;18.10;;;18.40;99.90;;;;;;5096233;28;20250;-80
2021/07/10 06:01:11;;;;;;;17.67;15.83;;;18.60;99.90;;;;;;5049577;28;20860;-81
2021/07/10 06:03:37;;;;;;;16.53;14.37;;;18.70;99.90;;;;;;5088337;28;20192;-80
2021/07/10 06:06:03;;;;;;;16.77;14.40;;;18.90;99.90;;;;;;5097664;28;20184;-80
2021/07/10 06:08:29;;;;;;;16.50;14.33;;;19.20;99.90;;;;;;5076167;28;20192;-80
2021/07/10 06:10:55;;;;;;;16.33;14.50;;;19.30;99.90;;;;;;5071587;28;20185;-81
2021/07/10 06:13:20;;;;;;;14.93;13.00;;;19.40;99.90;;;;;;5075765;28;20427;-81
2021/07/10 06:15:46;;;;;;;12.93;11.63;;;19.50;99.90;;;;;;5094734;28;21146;-80
2021/07/10 06:18:12;;;;;;;14.43;12.93;;;19.50;99.90;;;;;;5095379;28;20188;-79
2021/07/10 06:20:39;;;;;;;12.27;11.17;;;19.50;99.90;;;;;;5088271;28;20221;-80
2021/07/10 06:23:06;;;;;;;13.57;12.00;;;19.50;99.90;;;;;;5079062;28;20194;-80
2021/07/10 06:25:37;;;;;;;15.03;13.07;;;19.40;99.90;;;;;;5097284;28;20474;-82
2021/07/10 06:28:05;;;;;;;12.87;11.63;;;19.40;99.90;;;;;;5095026;28;20541;-80
2021/07/10 06:30:31;;;;;;;13.00;11.70;;;19.40;99.90;;;;;;5095187;28;20413;-80
2021/07/10 06:32:57;;;;;;;13.40;12.00;;;19.40;99.90;;;;;;5078905;28;20419;-81
2021/07/10 06:35:23;;;;;;;12.80;11.60;;;19.30;99.90;;;;;;5077765;28;20451;-81
2021/07/10 06:37:49;;;;;;;14.50;11.10;;;19.20;99.90;;;;;;5095173;28;20246;-80
2021/07/10 06:40:15;;;;;;;13.13;11.73;;;19.10;99.90;;;;;;5094119;28;20196;-81
2021/07/10 06:42:42;;;;;;;13.23;11.90;;;19.10;99.90;;;;;;5095489;28;20446;-80
2021/07/10 06:45:14;;;;;;;14.20;12.13;;;19.10;99.90;;;;;;5086293;28;20832;-81
2021/07/10 06:47:40;;;;;;;12.53;11.27;;;19.10;99.90;;;;;;5076465;28;21089;-81
2021/07/10 06:50:08;;;;;;;12.20;10.90;;;19.10;99.90;;;;;;5097001;28;20450;-81
2021/07/10 06:52:33;;;;;;;13.23;11.93;;;19.10;99.90;;;;;;5096485;28;20506;-80
2021/07/10 06:54:59;;;;;;;16.37;12.20;;;19.20;99.90;;;;;;5078812;28;20493;-82
2021/07/10 06:57:25;;;;;;;12.07;10.80;;;19.20;99.90;;;;;;5089101;28;20202;-81
2021/07/10 06:59:50;;;;;;;11.63;10.53;;;19.20;99.90;;;;;;5094212;28;20282;-80
2021/07/10 07:02:16;;;;;;;12.27;10.73;;;19.30;99.90;;;;;;5096775;28;20705;-80
2021/07/10 07:04:42;;;;;;;11.63;10.47;;;19.30;99.90;;;;;;5077887;28;20628;-82
2021/07/10 07:07:07;;;;;;;13.37;11.70;;;19.40;99.90;;;;;;5062198;28;20200;-81
2021/07/10 07:09:33;;;;;;;12.97;10.33;;;19.60;99.90;;;;;;5082264;28;20191;-82
2021/07/10 07:11:59;;;;;;;10.30;9.30;;;19.60;99.90;;;;;;5063982;28;20172;-81
2021/07/10 07:14:25;;;;;;;12.10;10.90;;;19.60;99.90;;;;;;5097010;28;20215;-80
2021/07/10 07:16:50;;;;;;;10.83;9.83;;;19.70;99.90;;;;;;5099129;28;20271;-79
2021/07/10 07:19:16;;;;;;;11.53;9.80;;;19.70;99.90;;;;;;5075611;28;20185;-78
2021/07/10 07:21:42;;;;;;;11.50;9.70;;;19.80;99.90;;;;;;5094215;28;20195;-79
2021/07/10 07:24:08;;;;;;;11.47;10.37;;;19.80;99.90;;;;;;5098169;28;20950;-79
2021/07/10 07:26:35;;;;;;;14.13;10.90;;;19.80;99.90;;;;;;5097296;28;20176;-80
2021/07/10 07:29:01;;;;;;;11.90;10.70;;;19.90;99.90;;;;;;5089507;28;20867;-80
2021/07/10 07:31:27;;;;;;;10.50;9.50;;;19.90;99.90;;;;;;5091813;28;20423;-79
2021/07/10 07:33:52;;;;;;;11.00;9.90;;;19.90;99.90;;;;;;5079496;28;20438;-80
2021/07/10 07:36:18;;;;;;;12.00;10.80;;;19.90;99.90;;;;;;5098312;28;20301;-80
2021/07/10 07:38:44;;;;;;;11.60;10.40;;;20.00;99.90;;;;;;5098340;28;20192;-79
2021/07/10 07:41:10;;;;;;;13.33;10.80;;;20.00;99.90;;;;;;5096936;28;20245;-79
2021/07/10 07:43:35;;;;;;;10.43;9.43;;;20.00;99.90;;;;;;5090087;28;20188;-80
2021/07/10 07:46:02;;;;;;;12.23;11.03;;;20.00;99.90;;;;;;5056460;28;20430;-80
2021/07/10 07:48:27;;;;;;;10.97;9.90;;;20.10;99.90;;;;;;5084933;28;20193;-80
2021/07/10 07:50:53;;;;;;;11.80;10.70;;;20.10;99.90;;;;;;5088640;28;20892;-80
2021/07/10 07:53:19;;;;;;;13.27;11.77;;;20.20;99.90;;;;;;5070008;28;20181;-80
2021/07/10 07:55:46;;;;;;;12.70;11.33;;;20.30;99.90;;;;;;5083054;28;20236;-80
2021/07/10 07:58:12;;;;;;;13.37;11.80;;;20.50;99.90;;;;;;5087655;28;20517;-80
2021/07/10 08:00:38;;;;;;;12.20;10.90;;;20.50;99.90;;;;;;5065888;28;20431;-80
2021/07/10 08:03:04;;;;;;;13.03;11.67;;;20.60;99.90;;;;;;5066621;28;20419;-80
2021/07/10 08:05:30;;;;;;;10.87;9.83;;;20.70;99.90;;;;;;5085775;28;20948;-81
2021/07/10 08:07:56;;;;;;;11.17;10.07;;;20.80;99.90;;;;;;5084598;28;20196;-80
2021/07/10 08:10:22;;;;;;;12.00;10.80;;;20.90;99.90;;;;;;5085610;28;20419;-80
2021/07/10 08:12:50;;;;;;;10.53;9.53;;;20.90;99.90;;;;;;5088180;28;20196;-81
2021/07/10 08:15:20;;;;;;;12.20;10.80;;;21.00;99.90;;;;;;5064942;28;20200;-80
2021/07/10 08:17:48;;;;;;;10.43;8.93;;;21.10;99.90;;;;;;5083571;28;20412;-80
2021/07/10 08:20:18;;;;;;;10.10;9.10;;;21.10;99.90;;;;;;5076005;28;20515;-80
2021/07/10 08:22:45;;;;;;;9.00;8.10;;;21.20;99.90;;;;;;5096415;28;20448;-80
2021/07/10 08:25:12;;;;;;;9.40;8.50;;;21.20;99.90;;;;;;5082768;28;20482;-80
2021/07/10 08:27:40;;;;;;;12.53;10.13;;;21.20;99.90;;;;;;5095054;28;20419;-78
2021/07/10 08:30:08;;;;;;;10.10;9.10;;;21.10;99.90;;;;;;5089853;28;20420;-80
2021/07/10 08:32:34;;;;;;;9.03;8.17;;;21.10;99.90;;;;;;5076284;28;20932;-80
2021/07/10 08:35:00;;;;;;;9.50;8.50;;;21.10;99.90;;;;;;5043740;28;20431;-81
2021/07/10 08:37:25;;;;;;;8.93;8.10;;;21.20;99.90;;;;;;5078642;28;20448;-80
2021/07/10 08:39:51;;;;;;;9.00;8.10;;;21.20;99.90;;;;;;5065958;28;20192;-79
2021/07/10 08:42:17;;;;;;;10.23;9.20;;;21.30;99.90;;;;;;5078743;28;20188;-80
2021/07/10 08:44:49;;;;;;;10.17;8.40;;;21.40;99.90;;;;;;5078867;28;20566;-80
2021/07/10 08:47:15;;;;;;;9.70;8.20;;;21.50;99.90;;;;;;5097332;28;20925;-80
2021/07/10 08:49:42;;;;;;;8.80;7.90;;;21.50;99.90;;;;;;5095545;28;20770;-80
2021/07/10 08:52:08;;;;;;;10.60;9.30;;;21.60;99.90;;;;;;5096388;28;20418;-80
2021/07/10 08:54:35;;;;;;;9.57;8.53;;;21.70;99.90;;;;;;5079618;28;20468;-80
2021/07/10 08:57:01;;;;;;;12.00;10.80;;;21.80;99.90;;;;;;5097357;28;20441;-81
2021/07/10 08:59:27;;;;;;;10.37;9.37;;;21.90;99.90;;;;;;5094785;28;20456;-80
2021/07/10 09:01:56;;;;;;;13.20;10.53;;;21.90;99.90;;;;;;5093668;28;20443;-80
2021/07/10 09:04:23;;;;;;;10.80;9.80;;;22.00;99.90;;;;;;5076589;28;20231;-80
2021/07/10 09:06:49;;;;;;;11.00;9.90;;;22.10;99.90;;;;;;5094367;28;21065;-81
2021/07/10 09:09:14;;;;;;;11.13;10.03;;;22.10;99.90;;;;;;5076272;28;20430;-79
2021/07/10 09:11:40;;;;;;;10.47;9.47;;;22.20;99.90;;;;;;5094835;28;20411;-80
2021/07/10 09:14:06;;;;;;;12.83;11.23;;;22.10;99.90;;;;;;5093553;28;20219;-80
2021/07/10 09:16:34;;;;;;;10.60;9.50;;;22.20;99.90;;;;;;5075474;28;20526;-80
2021/07/10 09:19:09;;;;;;;10.43;9.33;;;22.20;99.90;;;;;;5061259;28;20998;-79
2021/07/10 09:21:48;;;;;;;9.67;8.43;;;22.20;99.90;;;;;;5056989;28;21060;-80
2021/07/10 09:24:18;;;;;;;10.20;9.13;;;22.30;99.90;;;;;;5056454;28;20916;-80
2021/07/10 09:26:53;;;;;;;9.50;8.40;;;22.30;99.90;;;;;;5088981;28;20422;-79
2021/07/10 09:29:24;;;;;;;8.50;7.50;;;22.20;99.90;;;;;;5092908;28;20841;-78
2021/07/10 09:32:00;;;;;;;8.47;7.60;;;22.10;99.90;;;;;;5076874;28;20472;-79
2021/07/10 09:34:49;;;;;;;10.33;9.20;;;22.00;99.90;;;;;;5094808;28;20960;-78
2021/07/10 09:37:21;;;;;;;9.17;8.37;;;21.80;99.90;;;;;;5067524;28;20417;-80
2021/07/10 09:39:57;;;;;;;9.00;8.07;;;21.70;99.90;;;;;;5092727;28;20426;-79
2021/07/10 09:42:33;;;;;;;8.97;8.07;;;21.70;99.90;;;;;;5066607;28;20417;-80
2021/07/10 09:44:59;;;;;;;8.97;8.07;;;21.60;99.90;;;;;;5090602;28;20455;-78
2021/07/10 09:47:36;;;;;;;11.23;9.10;;;21.70;99.90;;;;;;5071644;28;20465;-79
2021/07/10 09:50:05;;;;;;;10.20;9.30;;;21.70;99.90;;;;;;5092570;28;20426;-80
2021/07/10 09:52:33;;;;;;;10.33;8.47;;;21.70;99.90;;;;;;5093599;28;20501;-78
2021/07/10 09:55:02;;;;;;;10.87;9.87;;;21.80;99.90;;;;;;5080790;28;20535;-80
2021/07/10 09:57:31;;;;;;;10.70;9.70;;;21.80;99.90;;;;;;5063531;28;20457;-80
2021/07/10 10:00:03;;;;;;;10.70;9.70;;;21.90;99.90;;;;;;5075523;28;20955;-80
2021/07/10 10:02:40;;;;;;;11.00;9.40;;;22.00;99.90;;;;;;5086654;28;20426;-79
2021/07/10 10:05:11;;;;;;;9.80;8.90;;;22.10;99.90;;;;;;5093662;28;20446;-79
2021/07/10 10:08:03;;;;;;;10.30;9.40;;;22.20;99.90;;;;;;5094900;28;20837;-81
2021/07/10 10:10:32;;;;;;;10.80;9.70;;;22.20;99.90;;;;;;5090662;28;20911;-79
2021/07/10 10:13:07;;;;;;;9.73;8.73;;;22.20;99.90;;;;;;5093414;28;20481;-79
2021/07/10 10:15:39;;;;;;;9.80;8.73;;;22.20;99.90;;;;;;5075494;28;20515;-81
2021/07/10 10:18:06;;;;;;;9.87;8.83;;;22.20;99.90;;;;;;5094092;28;20426;-81
2021/07/10 10:20:32;;;;;;;11.10;9.90;;;22.20;99.90;;;;;;5093942;28;20417;-80
2021/07/10 10:23:02;;;;;;;10.43;9.43;;;22.20;99.90;;;;;;5094706;28;20428;-81
2021/07/10 10:25:29;;;;;;;8.40;7.70;;;22.30;99.90;;;;;;5078369;28;20505;-81
2021/07/10 10:27:56;;;;;;;7.27;6.67;;;22.30;99.90;;;;;;5075261;28;20440;-81
2021/07/10 10:30:22;;;;;;;7.93;7.03;;;22.30;99.90;;;;;;5077596;28;20430;-79
2021/07/10 10:32:49;;;;;;;9.90;8.90;;;22.30;99.90;;;;;;5092142;28;20423;-81
2021/07/10 10:35:17;;;;;;;9.00;8.13;;;22.20;99.90;;;;;;5077191;28;20472;-81
2021/07/10 10:37:43;;;;;;;10.03;9.00;;;22.20;99.90;;;;;;5086276;28;20468;-81
2021/07/10 10:40:13;;;;;;;10.03;9.03;;;22.30;99.90;;;;;;5091338;28;20415;-80
2021/07/10 10:42:39;;;;;;;11.53;9.27;;;22.30;99.90;;;;;;5089015;28;20535;-81
2021/07/10 10:45:06;;;;;;;9.80;8.80;;;22.40;99.90;;;;;;5076252;28;20826;-80
2021/07/10 10:47:45;;;;;;;10.80;9.70;;;22.40;99.90;;;;;;5067951;28;20446;-81
2021/07/10 10:50:23;;;;;;;9.63;8.73;;;22.40;99.90;;;;;;5084304;28;20419;-81
2021/07/10 10:52:51;;;;;;;9.30;8.17;;;22.40;99.90;;;;;;5092242;28;20525;-80
2021/07/10 10:55:33;;;;;;;10.27;9.20;;;22.40;99.90;;;;;;5101597;28;20487;-80
2021/07/10 10:58:17;;;;;;;9.67;8.80;;;22.40;99.90;;;;;;5101949;28;20422;-81
2021/07/10 11:00:48;;;;;;;10.13;9.03;;;22.30;99.90;;;;;;5099230;28;20476;-81
2021/07/10 11:03:19;;;;;;;8.93;8.03;;;22.30;99.90;;;;;;5080297;28;20486;-80
2021/07/10 11:05:54;;;;;;;9.00;7.97;;;22.30;99.90;;;;;;5094251;28;21500;-80
2021/07/10 11:08:19;;;;;;;8.27;7.53;;;22.30;99.90;;;;;;5098005;28;20422;-81
2021/07/10 11:10:48;;;;;;;11.40;8.33;;;22.30;99.90;;;;;;5081235;28;20973;-79
2021/07/10 11:13:44;;;;;;;8.87;8.07;;;22.20;99.90;;;;;;5097692;28;20776;-79
2021/07/10 11:16:17;;;;;;;8.07;7.27;;;22.30;99.90;;;;;;5075141;28;20786;-79
2021/07/10 11:19:07;;;;;;;8.93;7.97;;;22.30;99.90;;;;;;5082903;28;20416;-81
2021/07/10 11:24:19;;;;;;;9.60;8.60;;;22.30;99.90;;;;;;5094852;28;20472;-81
2021/07/10 11:26:47;;;;;;;9.40;8.40;;;22.30;99.90;;;;;;5080235;28;20172;-81
2021/07/10 11:29:21;;;;;;;10.20;8.47;;;22.30;99.90;;;;;;5095580;28;20426;-81
2021/07/10 11:31:47;;;;;;;10.20;8.97;;;22.30;99.90;;;;;;5072640;28;20784;-81
2021/07/10 11:34:18;;;;;;;9.20;8.23;;;22.40;99.90;;;;;;5079054;28;20947;-81
2021/07/10 11:36:45;;;;;;;10.67;9.50;;;22.60;99.90;;;;;;5095844;28;20433;-80
2021/07/10 11:39:23;;;;;;;10.17;9.07;;;22.70;99.90;;;;;;5097053;28;20438;-80
2021/07/10 11:41:50;;;;;;;9.13;8.23;;;22.90;99.90;;;;;;5096277;28;20458;-79
2021/07/10 11:44:21;;;;;;;8.27;7.47;;;23.10;99.90;;;;;;5076508;28;20462;-81
2021/07/10 11:46:56;;;;;;;7.90;7.23;;;23.20;99.90;;;;;;5094677;28;20418;-81
2021/07/10 11:49:40;;;;;;;7.77;7.07;;;23.30;99.90;;;;;;5095065;28;20831;-81
2021/07/10 11:52:17;;;;;;;8.80;7.97;;;23.20;99.90;;;;;;5095770;28;20904;-79
2021/07/10 11:54:54;;;;;;;8.77;7.60;;;23.00;99.90;;;;;;5074709;28;20463;-81
2021/07/10 11:57:22;;;;;;;7.50;6.90;;;22.90;99.90;;;;;;5071461;28;20417;-81
2021/07/10 11:59:49;;;;;;;7.40;6.70;;;22.70;99.90;;;;;;5076585;28;20430;-81
2021/07/10 12:02:32;;;;;;;8.23;7.50;;;22.70;99.90;;;;;;5095101;28;20778;-79
2021/07/10 12:04:59;;;;;;;7.37;6.67;;;22.80;99.90;;;;;;5093955;28;20542;-81
2021/07/10 12:07:26;;;;;;;7.27;6.67;;;22.80;99.90;;;;;;5079098;28;20410;-80
2021/07/10 12:09:53;;;;;;;7.60;6.63;;;22.80;99.90;;;;;;5071603;28;20524;-81
2021/07/10 12:12:19;;;;;;;7.60;6.90;;;23.00;99.90;;;;;;5048278;28;21128;-79
2021/07/10 12:14:53;;;;;;;7.40;6.30;;;23.10;99.90;;;;;;5086251;28;20876;-81
2021/07/10 12:17:20;;;;;;;6.70;6.10;;;23.30;99.90;;;;;;5081105;28;20411;-81
2021/07/10 12:19:47;;;;;;;6.50;5.90;;;23.40;99.90;;;;;;5085777;28;20931;-81
2021/07/10 12:22:13;;;;;;;9.00;6.50;;;23.60;99.90;;;;;;5087529;28;20479;-81
2021/07/10 12:24:39;;;;;;;8.80;6.67;;;23.70;99.90;;;;;;5081777;28;20447;-80
2021/07/10 12:27:11;;;;;;;7.30;5.80;;;23.80;99.90;;;;;;5085111;28;20178;-80
2021/07/10 12:29:38;;;;;;;6.80;6.20;;;23.80;99.90;;;;;;5090003;28;20427;-80
2021/07/10 12:32:14;;;;;;;7.23;5.80;;;23.90;99.90;;;;;;5093481;28;20903;-81
2021/07/10 12:34:48;;;;;;;5.90;5.40;;;23.90;99.90;;;;;;5072882;28;20434;-81
2021/07/10 12:37:28;;;;;;;6.40;5.60;;;23.90;99.90;;;;;;5080167;28;20459;-81